sensor_id;sensor_type;location;lat;lon;timestamp;pressure;altitude;pressure_sealevel;temperature;humidity
45763;BME280;37512;52.408;13.356;2023-06-10T00:03:51;101053.97;;;17.00;100.00
45763;BME280;37512;52.408;13.356;2023-06-10T00:07:53;101045.97;;;17.02;100.00
45763;BME280;37512;52.408;13.356;2023-06-10T00:11:56;101045.16;;;17.08;100.00
45763;BME280;37512;52.408;13.356;2023-06-10T00:16:01;101041.94;;;17.21;100.00
45763;BME280;37512;52.408;13.356;2023-06-10T00:20:03;101043.56;;;17.04;100.00
45763;BME280;37512;52.408;13.356;2023-06-10T00:24:10;101036.75;;;16.98;100.00
45763;BME280;37512;52.408;13.356;2023-06-10T00:28:13;101043.16;;;16.84;100.00
45763;BME280;37512;52.408;13.356;2023-06-10T00:32:15;101036.75;;;16.87;100.00
45763;BME280;37512;52.408;13.356;2023-06-10T00:36:17;101043.56;;;16.89;100.00
45763;BME280;37512;52.408;13.356;2023-06-10T00:40:18;101043.97;;;16.84;100.00
45763;BME280;37512;52.408;13.356;2023-06-10T00:44:20;101049.56;;;16.81;100.00
45763;BME280;37512;52.408;13.356;2023-06-10T00:48:21;101043.53;;;16.61;100.00
45763;BME280;37512;52.408;13.356;2023-06-10T00:52:27;101045.94;;;16.73;100.00
45763;BME280;37512;52.408;13.356;2023-06-10T00:56:29;101053.84;;;16.28;100.00
45763;BME280;37512;52.408;13.356;2023-06-10T01:00:31;101052.31;;;16.59;100.00
45763;BME280;37512;52.408;13.356;2023-06-10T01:04:33;101047.56;;;16.81;100.00
45763;BME280;37512;52.408;13.356;2023-06-10T01:08:44;101059.59;;;16.82;100.00
45763;BME280;37512;52.408;13.356;2023-06-10T01:13:05;101061.16;;;16.72;100.00
45763;BME280;37512;52.408;13.356;2023-06-10T01:17:08;101057.94;;;16.77;100.00
45763;BME280;37512;52.408;13.356;2023-06-10T01:21:21;101061.16;;;16.72;100.00
45763;BME280;37512;52.408;13.356;2023-06-10T01:25:26;101062.72;;;16.62;100.00
45763;BME280;37512;52.408;13.356;2023-06-10T01:29:54;101057.53;;;16.68;100.00
45763;BME280;37512;52.408;13.356;2023-06-10T01:33:56;101064.75;;;16.65;100.00
45763;BME280;37512;52.408;13.356;2023-06-10T01:37:58;101066.72;;;16.47;100.00
45763;BME280;37512;52.408;13.356;2023-06-10T01:42:02;101061.00;;;16.11;100.00
45763;BME280;37512;52.408;13.356;2023-06-10T01:46:05;101069.06;;;16.20;100.00
45763;BME280;37512;52.408;13.356;2023-06-10T01:50:07;101063.47;;;16.34;100.00
45763;BME280;37512;52.408;13.356;2023-06-10T01:54:08;101063.50;;;16.38;100.00
45763;BME280;37512;52.408;13.356;2023-06-10T01:58:11;101069.81;;;16.06;100.00
45763;BME280;37512;52.408;13.356;2023-06-10T02:02:12;101074.28;;;16.32;100.00
45763;BME280;37512;52.408;13.356;2023-06-10T02:06:14;101073.88;;;16.37;100.00
45763;BME280;37512;52.408;13.356;2023-06-10T02:10:16;101069.44;;;16.18;100.00
45763;BME280;37512;52.408;13.356;2023-06-10T02:14:17;101068.97;;;16.05;100.00
45763;BME280;37512;52.408;13.356;2023-06-10T02:18:19;101065.78;;;16.07;100.00
45763;BME280;37512;52.408;13.356;2023-06-10T02:22:23;101076.53;;;15.94;100.00
45763;BME280;37512;52.408;13.356;2023-06-10T02:26:25;101073.69;;;15.87;100.00
45763;BME280;37512;52.408;13.356;2023-06-10T02:30:27;101067.34;;;15.97;100.00
45763;BME280;37512;52.408;13.356;2023-06-10T02:34:30;101086.03;;;15.72;100.00
45763;BME280;37512;52.408;13.356;2023-06-10T02:38:32;101071.31;;;15.85;100.00
45763;BME280;37512;52.408;13.356;2023-06-10T02:42:34;101072.50;;;15.81;100.00
45763;BME280;37512;52.408;13.356;2023-06-10T02:46:35;101078.75;;;15.63;100.00
45763;BME280;37512;52.408;13.356;2023-06-10T02:50:37;101076.84;;;15.75;100.00
45763;BME280;37512;52.408;13.356;2023-06-10T02:54:41;101080.44;;;15.75;100.00
45763;BME280;37512;52.408;13.356;2023-06-10T02:58:43;101075.28;;;15.84;100.00
45763;BME280;37512;52.408;13.356;2023-06-10T03:02:44;101086.84;;;15.72;100.00
45763;BME280;37512;52.408;13.356;2023-06-10T03:06:47;101077.22;;;15.73;100.00
45763;BME280;37512;52.408;13.356;2023-06-10T03:10:49;101087.75;;;15.32;100.00
45763;BME280;37512;52.408;13.356;2023-06-10T03:14:50;101070.31;;;15.56;100.00
45763;BME280;37512;52.408;13.356;2023-06-10T03:18:52;101073.44;;;15.44;100.00
45763;BME280;37512;52.408;13.356;2023-06-10T03:22:54;101079.09;;;15.55;100.00
45763;BME280;37512;52.408;13.356;2023-06-10T03:26:55;101074.19;;;15.34;100.00
45763;BME280;37512;52.408;13.356;2023-06-10T03:30:57;101080.91;;;15.25;100.00
45763;BME280;37512;52.408;13.356;2023-06-10T03:34:59;101084.31;;;15.56;100.00
45763;BME280;37512;52.408;13.356;2023-06-10T03:39:01;101084.69;;;15.55;100.00
45763;BME280;37512;52.408;13.356;2023-06-10T03:43:02;101086.72;;;15.61;100.00
45763;BME280;37512;52.408;13.356;2023-06-10T03:47:04;101093.22;;;15.73;100.00
45763;BME280;37512;52.408;13.356;2023-06-10T03:51:06;101096.59;;;15.41;100.00
45763;BME280;37512;52.408;13.356;2023-06-10T03:55:07;101101.00;;;15.42;100.00
45763;BME280;37512;52.408;13.356;2023-06-10T03:59:10;101104.56;;;15.35;100.00
45763;BME280;37512;52.408;13.356;2023-06-10T04:03:11;101098.88;;;15.24;100.00
45763;BME280;37512;52.408;13.356;2023-06-10T04:07:17;101107.00;;;15.44;100.00
45763;BME280;37512;52.408;13.356;2023-06-10T04:11:20;101107.88;;;15.55;100.00
45763;BME280;37512;52.408;13.356;2023-06-10T04:15:22;101109.50;;;15.60;100.00
45763;BME280;37512;52.408;13.356;2023-06-10T04:19:23;101127.56;;;15.69;100.00
45763;BME280;37512;52.408;13.356;2023-06-10T04:23:25;101101.69;;;15.87;100.00
45763;BME280;37512;52.408;13.356;2023-06-10T04:27:27;101103.34;;;15.95;100.00
45763;BME280;37512;52.408;13.356;2023-06-10T04:31:29;101110.53;;;15.93;100.00
45763;BME280;37512;52.408;13.356;2023-06-10T04:35:30;101123.84;;;16.17;100.00
45763;BME280;37512;52.408;13.356;2023-06-10T04:39:32;101122.63;;;16.15;100.00
45763;BME280;37512;52.408;13.356;2023-06-10T04:43:38;101128.25;;;16.25;100.00
45763;BME280;37512;52.408;13.356;2023-06-10T04:47:40;101122.63;;;16.11;100.00
45763;BME280;37512;52.408;13.356;2023-06-10T04:51:41;101128.34;;;16.50;100.00
45763;BME280;37512;52.408;13.356;2023-06-10T04:55:43;101135.53;;;16.44;100.00
45763;BME280;37512;52.408;13.356;2023-06-10T04:59:45;101140.69;;;16.28;100.00
45763;BME280;37512;52.408;13.356;2023-06-10T05:03:47;101140.25;;;16.26;100.00
45763;BME280;37512;52.408;13.356;2023-06-10T05:07:48;101136.75;;;16.47;100.00
45763;BME280;37512;52.408;13.356;2023-06-10T05:11:50;101132.69;;;16.30;100.00
45763;BME280;37512;52.408;13.356;2023-06-10T05:15:51;101137.47;;;16.22;100.00
45763;BME280;37512;52.408;13.356;2023-06-10T05:19:53;101142.31;;;16.40;100.00
45763;BME280;37512;52.408;13.356;2023-06-10T05:23:54;101142.75;;;16.45;100.00
45763;BME280;37512;52.408;13.356;2023-06-10T05:27:56;101151.56;;;16.51;100.00
45763;BME280;37512;52.408;13.356;2023-06-10T05:31:57;101154.81;;;16.64;100.00
45763;BME280;37512;52.408;13.356;2023-06-10T05:36:04;101158.81;;;16.63;100.00
45763;BME280;37512;52.408;13.356;2023-06-10T05:40:06;101161.22;;;16.61;100.00
45763;BME280;37512;52.408;13.356;2023-06-10T05:44:09;101152.13;;;17.00;100.00
45763;BME280;37512;52.408;13.356;2023-06-10T05:48:14;101154.91;;;17.28;100.00
45763;BME280;37512;52.408;13.356;2023-06-10T05:52:15;101153.69;;;17.58;100.00
45763;BME280;37512;52.408;13.356;2023-06-10T05:56:17;101153.28;;;17.92;100.00
45763;BME280;37512;52.408;13.356;2023-06-10T06:00:18;101156.81;;;18.17;100.00
45763;BME280;37512;52.408;13.356;2023-06-10T06:04:20;101157.91;;;18.42;100.00
45763;BME280;37512;52.408;13.356;2023-06-10T06:08:22;101159.91;;;18.48;100.00
45763;BME280;37512;52.408;13.356;2023-06-10T06:12:23;101163.53;;;18.42;100.00
45763;BME280;37512;52.408;13.356;2023-06-10T06:16:25;101173.88;;;18.63;100.00
45763;BME280;37512;52.408;13.356;2023-06-10T06:20:27;101173.84;;;18.70;100.00
45763;BME280;37512;52.408;13.356;2023-06-10T06:24:28;101166.22;;;18.77;100.00
45763;BME280;37512;52.408;13.356;2023-06-10T06:28:30;101174.53;;;18.92;100.00
45763;BME280;37512;52.408;13.356;2023-06-10T06:32:34;101179.94;;;19.28;100.00
45763;BME280;37512;52.408;13.356;2023-06-10T06:36:36;101173.94;;;19.67;100.00
45763;BME280;37512;52.408;13.356;2023-06-10T06:40:37;101185.22;;;19.67;100.00
45763;BME280;37512;52.408;13.356;2023-06-10T06:44:39;101181.94;;;19.76;100.00
45763;BME280;37512;52.408;13.356;2023-06-10T06:48:40;101185.66;;;20.07;100.00
45763;BME280;37512;52.408;13.356;2023-06-10T06:52:42;101188.81;;;20.09;100.00
45763;BME280;37512;52.408;13.356;2023-06-10T06:56:44;101196.97;;;20.38;100.00
45763;BME280;37512;52.408;13.356;2023-06-10T07:00:45;101187.84;;;20.61;100.00
45763;BME280;37512;52.408;13.356;2023-06-10T07:04:47;101193.19;;;21.09;100.00
45763;BME280;37512;52.408;13.356;2023-06-10T07:08:51;101194.69;;;21.18;100.00
45763;BME280;37512;52.408;13.356;2023-06-10T07:12:53;101193.56;;;21.12;100.00
45763;BME280;37512;52.408;13.356;2023-06-10T07:16:54;101204.06;;;21.11;100.00
45763;BME280;37512;52.408;13.356;2023-06-10T07:20:56;101206.34;;;21.47;99.96
45763;BME280;37512;52.408;13.356;2023-06-10T07:24:58;101209.84;;;21.78;97.80
45763;BME280;37512;52.408;13.356;2023-06-10T07:28:59;101215.13;;;21.52;100.00
45763;BME280;37512;52.408;13.356;2023-06-10T07:33:01;101218.56;;;21.64;98.03
45763;BME280;37512;52.408;13.356;2023-06-10T07:37:04;101210.84;;;22.11;95.25
45763;BME280;37512;52.408;13.356;2023-06-10T07:41:06;101213.56;;;21.95;97.14
45763;BME280;37512;52.408;13.356;2023-06-10T07:45:08;101217.69;;;21.90;95.89
45763;BME280;37512;52.408;13.356;2023-06-10T07:49:10;101223.25;;;22.18;93.69
45763;BME280;37512;52.408;13.356;2023-06-10T07:53:12;101220.97;;;22.32;93.34
45763;BME280;37512;52.408;13.356;2023-06-10T07:57:16;101214.09;;;22.10;94.61
45763;BME280;37512;52.408;13.356;2023-06-10T08:01:18;101208.94;;;22.05;93.09
45763;BME280;37512;52.408;13.356;2023-06-10T08:05:20;101217.19;;;22.39;91.65
45763;BME280;37512;52.408;13.356;2023-06-10T08:09:22;101216.47;;;22.55;89.38
45763;BME280;37512;52.408;13.356;2023-06-10T08:13:24;101220.16;;;22.52;90.80
45763;BME280;37512;52.408;13.356;2023-06-10T08:17:26;101221.06;;;22.85;89.18
45763;BME280;37512;52.408;13.356;2023-06-10T08:21:28;101220.63;;;23.23;84.77
45763;BME280;37512;52.408;13.356;2023-06-10T08:25:30;101222.75;;;23.35;81.07
45763;BME280;37512;52.408;13.356;2023-06-10T08:29:32;101229.41;;;23.62;81.26
45763;BME280;37512;52.408;13.356;2023-06-10T08:33:34;101225.50;;;23.55;79.09
45763;BME280;37512;52.408;13.356;2023-06-10T08:37:35;101233.50;;;23.61;81.36
45763;BME280;37512;52.408;13.356;2023-06-10T08:41:42;101226.19;;;24.09;78.74
45763;BME280;37512;52.408;13.356;2023-06-10T08:45:48;101241.50;;;24.57;76.48
45763;BME280;37512;52.408;13.356;2023-06-10T08:49:51;101245.47;;;24.59;76.42
45763;BME280;37512;52.408;13.356;2023-06-10T08:54:04;101249.13;;;24.73;75.89
45763;BME280;37512;52.408;13.356;2023-06-10T08:58:07;101249.75;;;24.93;74.82
45763;BME280;37512;52.408;13.356;2023-06-10T09:02:09;101248.38;;;24.98;71.88
45763;BME280;37512;52.408;13.356;2023-06-10T09:06:11;101242.84;;;25.33;72.43
45763;BME280;37512;52.408;13.356;2023-06-10T09:10:13;101244.75;;;25.49;71.47
45763;BME280;37512;52.408;13.356;2023-06-10T09:14:15;101235.25;;;25.30;69.69
45763;BME280;37512;52.408;13.356;2023-06-10T09:18:18;101240.06;;;25.80;68.45
45763;BME280;37512;52.408;13.356;2023-06-10T09:22:19;101238.22;;;25.86;64.79
45763;BME280;37512;52.408;13.356;2023-06-10T09:26:28;101232.47;;;26.34;63.47
45763;BME280;37512;52.408;13.356;2023-06-10T09:30:33;101233.41;;;26.53;61.49
45763;BME280;37512;52.408;13.356;2023-06-10T09:34:36;101231.03;;;26.52;60.45
45763;BME280;37512;52.408;13.356;2023-06-10T09:38:37;101229.53;;;26.91;60.07
45763;BME280;37512;52.408;13.356;2023-06-10T09:42:39;101239.31;;;27.12;59.23
45763;BME280;37512;52.408;13.356;2023-06-10T09:46:41;101224.88;;;27.47;57.55
45763;BME280;37512;52.408;13.356;2023-06-10T09:50:44;101231.28;;;27.79;57.31
45763;BME280;37512;52.408;13.356;2023-06-10T09:54:45;101235.16;;;27.94;56.70
45763;BME280;37512;52.408;13.356;2023-06-10T09:58:47;101227.06;;;28.48;52.61
45763;BME280;37512;52.408;13.356;2023-06-10T10:02:50;101225.59;;;27.79;50.48
45763;BME280;37512;52.408;13.356;2023-06-10T10:06:53;101231.97;;;28.38;50.75
45763;BME280;37512;52.408;13.356;2023-06-10T10:10:56;101224.66;;;28.65;48.46
45763;BME280;37512;52.408;13.356;2023-06-10T10:14:58;101235.03;;;29.38;48.45
45763;BME280;37512;52.408;13.356;2023-06-10T10:19:05;101230.84;;;29.06;49.46
45763;BME280;37512;52.408;13.356;2023-06-10T10:23:10;101236.75;;;29.11;49.67
45763;BME280;37512;52.408;13.356;2023-06-10T10:27:27;101236.34;;;28.76;48.25
45763;BME280;37512;52.408;13.356;2023-06-10T10:31:32;101239.25;;;28.11;51.04
45763;BME280;37512;52.408;13.356;2023-06-10T10:35:36;101238.00;;;28.03;48.59
45763;BME280;37512;52.408;13.356;2023-06-10T10:39:39;101246.06;;;27.37;50.63
45763;BME280;37512;52.408;13.356;2023-06-10T10:43:41;101233.75;;;27.40;49.93
45763;BME280;37512;52.408;13.356;2023-06-10T10:47:45;101242.06;;;27.25;49.28
45763;BME280;37512;52.408;13.356;2023-06-10T10:51:58;101230.59;;;27.47;49.46
45763;BME280;37512;52.408;13.356;2023-06-10T10:56:08;101228.78;;;28.36;46.37
45763;BME280;37512;52.408;13.356;2023-06-10T11:00:12;101219.44;;;29.15;44.19
45763;BME280;37512;52.408;13.356;2023-06-10T11:04:26;101222.03;;;29.85;40.89
45763;BME280;37512;52.408;13.356;2023-06-10T11:16:47;101216.03;;;29.83;39.26
45763;BME280;37512;52.408;13.356;2023-06-10T11:24:51;101222.75;;;28.34;42.61
45763;BME280;37512;52.408;13.356;2023-06-10T11:32:54;101214.16;;;27.60;43.80
45763;BME280;37512;52.408;13.356;2023-06-10T11:37:02;101210.38;;;27.82;45.94
45763;BME280;37512;52.408;13.356;2023-06-10T11:41:05;101205.19;;;28.26;44.69
45763;BME280;37512;52.408;13.356;2023-06-10T11:45:07;101196.41;;;29.43;42.16
45763;BME280;37512;52.408;13.356;2023-06-10T11:49:11;101199.44;;;30.26;38.93
45763;BME280;37512;52.408;13.356;2023-06-10T11:53:12;101198.13;;;30.12;37.51
45763;BME280;37512;52.408;13.356;2023-06-10T11:57:14;101193.75;;;30.71;36.73
45763;BME280;37512;52.408;13.356;2023-06-10T12:01:20;101185.47;;;30.73;37.81
45763;BME280;37512;52.408;13.356;2023-06-10T12:05:29;101179.53;;;30.91;35.72
45763;BME280;37512;52.408;13.356;2023-06-10T12:09:31;101187.84;;;31.24;36.28
45763;BME280;37512;52.408;13.356;2023-06-10T12:13:34;101185.63;;;30.99;37.20
45763;BME280;37512;52.408;13.356;2023-06-10T12:17:37;101181.47;;;31.71;35.68
45763;BME280;37512;52.408;13.356;2023-06-10T12:21:40;101195.16;;;31.61;35.08
45763;BME280;37512;52.408;13.356;2023-06-10T12:25:51;101200.59;;;31.59;34.84
45763;BME280;37512;52.408;13.356;2023-06-10T12:29:54;101202.63;;;31.73;35.70
45763;BME280;37512;52.408;13.356;2023-06-10T12:34:09;101196.03;;;32.34;34.42
45763;BME280;37512;52.408;13.356;2023-06-10T12:38:10;101183.69;;;32.02;33.24
45763;BME280;37512;52.408;13.356;2023-06-10T12:42:13;101181.16;;;32.36;33.67
45763;BME280;37512;52.408;13.356;2023-06-10T12:46:15;101169.50;;;32.45;33.24
45763;BME280;37512;52.408;13.356;2023-06-10T12:50:17;101174.47;;;32.44;33.60
45763;BME280;37512;52.408;13.356;2023-06-10T12:54:19;101169.34;;;32.54;35.67
45763;BME280;37512;52.408;13.356;2023-06-10T12:58:21;101160.84;;;32.39;35.78
45763;BME280;37512;52.408;13.356;2023-06-10T13:02:23;101155.34;;;32.67;35.98
45763;BME280;37512;52.408;13.356;2023-06-10T13:06:25;101155.50;;;32.53;35.29
45763;BME280;37512;52.408;13.356;2023-06-10T13:10:27;101153.00;;;31.93;36.63
45763;BME280;37512;52.408;13.356;2023-06-10T13:14:29;101151.69;;;32.41;35.25
45763;BME280;37512;52.408;13.356;2023-06-10T13:18:30;101155.94;;;31.52;35.82
45763;BME280;37512;52.408;13.356;2023-06-10T13:22:38;101144.16;;;31.71;36.53
45763;BME280;37512;52.408;13.356;2023-06-10T13:26:39;101147.63;;;30.69;37.64
45763;BME280;37512;52.408;13.356;2023-06-10T13:30:41;101144.66;;;29.40;40.32
45763;BME280;37512;52.408;13.356;2023-06-10T13:34:43;101142.34;;;28.45;42.08
45763;BME280;37512;52.408;13.356;2023-06-10T13:38:44;101134.09;;;28.89;41.42
45763;BME280;37512;52.408;13.356;2023-06-10T13:42:46;101135.91;;;29.68;39.68
45763;BME280;37512;52.408;13.356;2023-06-10T13:46:52;101129.78;;;30.59;38.10
45763;BME280;37512;52.408;13.356;2023-06-10T13:50:54;101134.09;;;30.10;37.77
45763;BME280;37512;52.408;13.356;2023-06-10T13:54:55;101140.75;;;29.77;37.04
45763;BME280;37512;52.408;13.356;2023-06-10T13:58:57;101135.63;;;29.09;37.07
45763;BME280;37512;52.408;13.356;2023-06-10T14:03:01;101125.69;;;28.43;38.81
45763;BME280;37512;52.408;13.356;2023-06-10T14:07:05;101126.06;;;28.27;41.04
45763;BME280;37512;52.408;13.356;2023-06-10T14:11:07;101126.66;;;28.40;42.49
45763;BME280;37512;52.408;13.356;2023-06-10T14:15:08;101121.19;;;27.90;44.73
45763;BME280;37512;52.408;13.356;2023-06-10T14:19:10;101113.72;;;27.56;42.28
45763;BME280;37512;52.408;13.356;2023-06-10T14:23:12;101117.69;;;27.59;41.38
45763;BME280;37512;52.408;13.356;2023-06-10T14:27:14;101124.34;;;27.56;41.58
45763;BME280;37512;52.408;13.356;2023-06-10T14:31:16;101113.72;;;27.56;41.24
45763;BME280;37512;52.408;13.356;2023-06-10T14:35:18;101118.03;;;28.68;43.39
45763;BME280;37512;52.408;13.356;2023-06-10T14:39:19;101114.16;;;29.61;41.55
45763;BME280;37512;52.408;13.356;2023-06-10T14:43:21;101114.38;;;30.56;38.74
45763;BME280;37512;52.408;13.356;2023-06-10T14:47:23;101102.66;;;30.90;36.82
45763;BME280;37512;52.408;13.356;2023-06-10T14:51:24;101105.81;;;31.48;36.13
45763;BME280;37512;52.408;13.356;2023-06-10T14:55:26;101115.91;;;32.10;33.59
45763;BME280;37512;52.408;13.356;2023-06-10T14:59:28;101112.22;;;32.62;33.12
45763;BME280;37512;52.408;13.356;2023-06-10T15:03:29;101107.97;;;31.53;33.76
45763;BME280;37512;52.408;13.356;2023-06-10T15:07:31;101100.66;;;31.98;34.51
45763;BME280;37512;52.408;13.356;2023-06-10T15:11:33;101099.00;;;32.76;33.33
45763;BME280;37512;52.408;13.356;2023-06-10T15:15:34;101108.13;;;32.74;31.76
45763;BME280;37512;52.408;13.356;2023-06-10T15:19:36;101102.53;;;33.02;31.45
45763;BME280;37512;52.408;13.356;2023-06-10T15:23:37;101103.50;;;32.88;31.49
45763;BME280;37512;52.408;13.356;2023-06-10T15:27:39;101107.31;;;33.05;31.72
45763;BME280;37512;52.408;13.356;2023-06-10T15:31:41;101104.97;;;33.64;30.86
45763;BME280;37512;52.408;13.356;2023-06-10T15:35:43;101116.34;;;32.92;30.14
45763;BME280;37512;52.408;13.356;2023-06-10T15:39:44;101118.22;;;33.01;30.31
45763;BME280;37512;52.408;13.356;2023-06-10T15:43:46;101116.75;;;32.80;30.79
45763;BME280;37512;52.408;13.356;2023-06-10T15:47:48;101119.50;;;32.31;29.64
45763;BME280;37512;52.408;13.356;2023-06-10T15:51:49;101122.97;;;33.53;28.74
45763;BME280;37512;52.408;13.356;2023-06-10T15:55:51;101114.22;;;32.24;29.53
45763;BME280;37512;52.408;13.356;2023-06-10T15:59:53;101106.63;;;31.74;29.53
45763;BME280;37512;52.408;13.356;2023-06-10T16:03:55;101120.00;;;31.36;30.46
45763;BME280;37512;52.408;13.356;2023-06-10T16:07:57;101124.03;;;31.44;29.38
45763;BME280;37512;52.408;13.356;2023-06-10T16:12:03;101119.78;;;31.60;29.20
45763;BME280;37512;52.408;13.356;2023-06-10T16:16:05;101118.97;;;32.01;29.07
45763;BME280;37512;52.408;13.356;2023-06-10T16:20:07;101120.66;;;32.71;27.68
45763;BME280;37512;52.408;13.356;2023-06-10T16:24:09;101119.13;;;31.71;27.94
45763;BME280;37512;52.408;13.356;2023-06-10T16:28:12;101120.13;;;31.68;27.67
45763;BME280;37512;52.408;13.356;2023-06-10T16:32:14;101114.66;;;31.29;28.47
45763;BME280;37512;52.408;13.356;2023-06-10T16:36:16;101117.47;;;32.11;27.08
45763;BME280;37512;52.408;13.356;2023-06-10T16:40:18;101119.69;;;32.85;25.70
45763;BME280;37512;52.408;13.356;2023-06-10T16:44:20;101115.34;;;31.39;27.25
45763;BME280;37512;52.408;13.356;2023-06-10T16:48:21;101120.63;;;30.90;27.86
45763;BME280;37512;52.408;13.356;2023-06-10T16:52:23;101122.75;;;32.18;26.91
45763;BME280;37512;52.408;13.356;2023-06-10T16:56:24;101125.28;;;32.05;26.56
45763;BME280;37512;52.408;13.356;2023-06-10T17:00:26;101130.56;;;30.59;27.63
45763;BME280;37512;52.408;13.356;2023-06-10T17:04:27;101135.81;;;30.61;27.78
45763;BME280;37512;52.408;13.356;2023-06-10T17:08:29;101134.91;;;30.55;28.18
45763;BME280;37512;52.408;13.356;2023-06-10T17:12:30;101131.59;;;31.68;27.38
45763;BME280;37512;52.408;13.356;2023-06-10T17:16:32;101137.56;;;30.29;27.78
45763;BME280;37512;52.408;13.356;2023-06-10T17:20:33;101139.47;;;30.32;26.88
45763;BME280;37512;52.408;13.356;2023-06-10T17:24:35;101139.41;;;30.76;27.45
45763;BME280;37512;52.408;13.356;2023-06-10T17:28:37;101141.91;;;29.70;28.30
45763;BME280;37512;52.408;13.356;2023-06-10T17:32:41;101145.16;;;30.02;27.56
45763;BME280;37512;52.408;13.356;2023-06-10T17:36:44;101148.31;;;29.08;29.12
45763;BME280;37512;52.408;13.356;2023-06-10T17:40:48;101153.72;;;29.15;28.79
45763;BME280;37512;52.408;13.356;2023-06-10T17:44:50;101151.28;;;28.28;29.14
45763;BME280;37512;52.408;13.356;2023-06-10T17:48:51;101163.78;;;28.31;29.10
45763;BME280;37512;52.408;13.356;2023-06-10T17:52:53;101162.78;;;28.62;29.10
45763;BME280;37512;52.408;13.356;2023-06-10T17:57:01;101172.19;;;27.79;30.77
45763;BME280;37512;52.408;13.356;2023-06-10T18:01:08;101169.56;;;26.85;30.70
45763;BME280;37512;52.408;13.356;2023-06-10T18:05:15;101171.28;;;26.83;31.50
45763;BME280;37512;52.408;13.356;2023-06-10T18:09:20;101175.25;;;26.85;32.38
45763;BME280;37512;52.408;13.356;2023-06-10T18:13:28;101174.38;;;26.66;32.66
45763;BME280;37512;52.408;13.356;2023-06-10T18:17:30;101172.44;;;26.95;32.66
45763;BME280;37512;52.408;13.356;2023-06-10T18:21:32;101172.53;;;26.82;33.00
45763;BME280;37512;52.408;13.356;2023-06-10T18:25:34;101174.78;;;26.56;34.94
45763;BME280;37512;52.408;13.356;2023-06-10T18:29:36;101182.94;;;26.00;34.38
45763;BME280;37512;52.408;13.356;2023-06-10T18:33:37;101188.38;;;25.95;35.36
45763;BME280;37512;52.408;13.356;2023-06-10T18:37:39;101187.59;;;25.94;35.84
45763;BME280;37512;52.408;13.356;2023-06-10T18:41:40;101203.81;;;26.06;35.86
45763;BME280;37512;52.408;13.356;2023-06-10T18:45:42;101197.47;;;26.24;35.78
45763;BME280;37512;52.408;13.356;2023-06-10T18:49:45;101206.03;;;25.77;36.88
45763;BME280;37512;52.408;13.356;2023-06-10T18:53:46;101213.06;;;25.50;37.28
45763;BME280;37512;52.408;13.356;2023-06-10T18:57:48;101207.41;;;25.72;36.64
45763;BME280;37512;52.408;13.356;2023-06-10T19:01:49;101212.03;;;25.57;38.30
45763;BME280;37512;52.408;13.356;2023-06-10T19:05:51;101221.94;;;25.39;38.70
45763;BME280;37512;52.408;13.356;2023-06-10T19:09:53;101219.28;;;25.45;38.46
45763;BME280;37512;52.408;13.356;2023-06-10T19:13:55;101226.59;;;25.33;38.59
45763;BME280;37512;52.408;13.356;2023-06-10T19:17:56;101225.81;;;24.52;40.25
45763;BME280;37512;52.408;13.356;2023-06-10T19:21:58;101234.94;;;24.14;41.38
45763;BME280;37512;52.408;13.356;2023-06-10T19:26:00;101234.88;;;24.01;41.41
45763;BME280;37512;52.408;13.356;2023-06-10T19:30:02;101243.28;;;24.05;42.49
45763;BME280;37512;52.408;13.356;2023-06-10T19:34:05;101250.41;;;23.80;41.73
45763;BME280;37512;52.408;13.356;2023-06-10T19:38:06;101252.63;;;23.73;42.06
45763;BME280;37512;52.408;13.356;2023-06-10T19:42:08;101254.94;;;23.78;43.90
45763;BME280;37512;52.408;13.356;2023-06-10T19:46:13;101258.25;;;24.06;42.80
45763;BME280;37512;52.408;13.356;2023-06-10T19:50:19;101255.38;;;23.76;44.08
45763;BME280;37512;52.408;13.356;2023-06-10T19:54:21;101261.50;;;23.75;44.69
45763;BME280;37512;52.408;13.356;2023-06-10T19:58:23;101268.22;;;23.97;44.93
45763;BME280;37512;52.408;13.356;2023-06-10T20:02:24;101271.13;;;23.61;47.98
45763;BME280;37512;52.408;13.356;2023-06-10T20:06:26;101277.16;;;23.96;47.94
45763;BME280;37512;52.408;13.356;2023-06-10T20:10:28;101281.41;;;23.88;49.34
45763;BME280;37512;52.408;13.356;2023-06-10T20:14:33;101280.59;;;23.54;51.59
45763;BME280;37512;52.408;13.356;2023-06-10T20:18:35;101292.47;;;23.66;52.35
45763;BME280;37512;52.408;13.356;2023-06-10T20:22:37;101285.19;;;23.65;53.67
45763;BME280;37512;52.408;13.356;2023-06-10T20:26:39;101290.44;;;23.83;52.90
45763;BME280;37512;52.408;13.356;2023-06-10T20:30:41;101292.59;;;23.42;55.34
45763;BME280;37512;52.408;13.356;2023-06-10T20:34:42;101300.13;;;23.32;56.73
45763;BME280;37512;52.408;13.356;2023-06-10T20:38:47;101294.09;;;23.30;57.40
45763;BME280;37512;52.408;13.356;2023-06-10T20:42:49;101303.34;;;23.14;58.05
45763;BME280;37512;52.408;13.356;2023-06-10T20:46:51;101312.72;;;23.11;59.06
45763;BME280;37512;52.408;13.356;2023-06-10T20:50:52;101310.06;;;23.04;59.87
45763;BME280;37512;52.408;13.356;2023-06-10T20:54:54;101310.81;;;22.65;60.85
45763;BME280;37512;52.408;13.356;2023-06-10T20:58:56;101318.50;;;22.64;60.82
45763;BME280;37512;52.408;13.356;2023-06-10T21:02:58;101314.16;;;22.80;58.94